sensor_id;sensor_type;location;lat;lon;timestamp;P1;durP1;ratioP1;P2;durP2;ratioP2
59960;SDS011;55902;-37.980;-63.602;2023-11-19T00:19:12;5.15;;;1.17;;
59960;SDS011;55902;-37.980;-63.602;2023-11-19T00:21:39;5.22;;;1.05;;
59960;SDS011;55902;-37.980;-63.602;2023-11-19T00:24:06;3.85;;;1.20;;
59960;SDS011;55902;-37.980;-63.602;2023-11-19T00:26:34;3.00;;;1.02;;
59960;SDS011;55902;-37.980;-63.602;2023-11-19T00:29:01;3.00;;;1.30;;
59960;SDS011;55902;-37.980;-63.602;2023-11-19T00:31:28;2.22;;;1.40;;
59960;SDS011;55902;-37.980;-63.602;2023-11-19T00:33:55;2.90;;;1.10;;
59960;SDS011;55902;-37.980;-63.602;2023-11-19T00:36:22;5.50;;;1.50;;
59960;SDS011;55902;-37.980;-63.602;2023-11-19T00:38:49;4.25;;;1.40;;
59960;SDS011;55902;-37.980;-63.602;2023-11-19T00:41:18;5.45;;;1.10;;
59960;SDS011;55902;-37.980;-63.602;2023-11-19T00:43:45;8.23;;;1.58;;
59960;SDS011;55902;-37.980;-63.602;2023-11-19T00:46:12;4.45;;;1.15;;
59960;SDS011;55902;-37.980;-63.602;2023-11-19T00:48:40;5.18;;;1.10;;
59960;SDS011;55902;-37.980;-63.602;2023-11-19T00:51:07;4.32;;;1.08;;
59960;SDS011;55902;-37.980;-63.602;2023-11-19T00:53:34;2.05;;;0.90;;
59960;SDS011;55902;-37.980;-63.602;2023-11-19T00:56:01;3.78;;;1.02;;
59960;SDS011;55902;-37.980;-63.602;2023-11-19T00:58:28;4.00;;;1.10;;
59960;SDS011;55902;-37.980;-63.602;2023-11-19T01:00:55;5.45;;;1.17;;
59960;SDS011;55902;-37.980;-63.602;2023-11-19T01:03:22;5.63;;;1.25;;
59960;SDS011;55902;-37.980;-63.602;2023-11-19T01:05:49;4.40;;;1.10;;
59960;SDS011;55902;-37.980;-63.602;2023-11-19T01:08:17;2.60;;;1.00;;
59960;SDS011;55902;-37.980;-63.602;2023-11-19T01:10:44;3.22;;;0.90;;
59960;SDS011;55902;-37.980;-63.602;2023-11-19T01:13:11;3.05;;;1.13;;
59960;SDS011;55902;-37.980;-63.602;2023-11-19T01:15:38;3.58;;;1.13;;
59960;SDS011;55902;-37.980;-63.602;2023-11-19T01:18:06;2.28;;;1.10;;
59960;SDS011;55902;-37.980;-63.602;2023-11-19T01:20:36;2.75;;;1.17;;
59960;SDS011;55902;-37.980;-63.602;2023-11-19T01:23:03;2.65;;;0.98;;
59960;SDS011;55902;-37.980;-63.602;2023-11-19T01:25:30;2.65;;;1.00;;
59960;SDS011;55902;-37.980;-63.602;2023-11-19T01:31:18;3.03;;;1.10;;
59960;SDS011;55902;-37.980;-63.602;2023-11-19T01:33:45;2.10;;;0.90;;
59960;SDS011;55902;-37.980;-63.602;2023-11-19T01:36:21;5.53;;;1.02;;
59960;SDS011;55902;-37.980;-63.602;2023-11-19T01:38:51;3.85;;;1.10;;
59960;SDS011;55902;-37.980;-63.602;2023-11-19T01:41:30;2.58;;;1.05;;
59960;SDS011;55902;-37.980;-63.602;2023-11-19T01:44:01;3.38;;;1.20;;
59960;SDS011;55902;-37.980;-63.602;2023-11-19T01:46:40;1.95;;;1.00;;
59960;SDS011;55902;-37.980;-63.602;2023-11-19T01:49:09;4.03;;;1.20;;
59960;SDS011;55902;-37.980;-63.602;2023-11-19T01:51:41;2.00;;;1.10;;
59960;SDS011;55902;-37.980;-63.602;2023-11-19T01:54:08;3.85;;;1.25;;
59960;SDS011;55902;-37.980;-63.602;2023-11-19T01:56:36;1.95;;;1.15;;
59960;SDS011;55902;-37.980;-63.602;2023-11-19T01:59:06;2.70;;;1.10;;
59960;SDS011;55902;-37.980;-63.602;2023-11-19T02:01:35;2.38;;;1.13;;
59960;SDS011;55902;-37.980;-63.602;2023-11-19T02:04:08;4.55;;;1.05;;
59960;SDS011;55902;-37.980;-63.602;2023-11-19T02:06:37;3.10;;;1.10;;
59960;SDS011;55902;-37.980;-63.602;2023-11-19T02:09:09;2.15;;;1.10;;
59960;SDS011;55902;-37.980;-63.602;2023-11-19T02:11:36;4.57;;;1.30;;
59960;SDS011;55902;-37.980;-63.602;2023-11-19T02:14:05;2.30;;;1.33;;
59960;SDS011;55902;-37.980;-63.602;2023-11-19T02:16:32;4.35;;;1.20;;
59960;SDS011;55902;-37.980;-63.602;2023-11-19T02:18:59;3.80;;;1.20;;
59960;SDS011;55902;-37.980;-63.602;2023-11-19T02:21:26;2.33;;;1.00;;
59960;SDS011;55902;-37.980;-63.602;2023-11-19T02:23:53;1.42;;;1.05;;
59960;SDS011;55902;-37.980;-63.602;2023-11-19T02:26:26;2.35;;;0.93;;
59960;SDS011;55902;-37.980;-63.602;2023-11-19T02:29:05;2.72;;;1.10;;
59960;SDS011;55902;-37.980;-63.602;2023-11-19T02:31:33;3.08;;;1.50;;
59960;SDS011;55902;-37.980;-63.602;2023-11-19T02:34:00;5.25;;;1.70;;
59960;SDS011;55902;-37.980;-63.602;2023-11-19T02:36:28;3.47;;;1.10;;
59960;SDS011;55902;-37.980;-63.602;2023-11-19T02:38:54;5.00;;;1.10;;
59960;SDS011;55902;-37.980;-63.602;2023-11-19T02:41:21;2.83;;;1.10;;
59960;SDS011;55902;-37.980;-63.602;2023-11-19T02:43:51;2.75;;;1.05;;
59960;SDS011;55902;-37.980;-63.602;2023-11-19T02:49:35;4.28;;;1.20;;
59960;SDS011;55902;-37.980;-63.602;2023-11-19T02:52:03;2.53;;;1.00;;
59960;SDS011;55902;-37.980;-63.602;2023-11-19T02:54:35;2.03;;;1.08;;
59960;SDS011;55902;-37.980;-63.602;2023-11-19T02:57:03;2.55;;;1.25;;
59960;SDS011;55902;-37.980;-63.602;2023-11-19T02:59:30;2.60;;;1.20;;
59960;SDS011;55902;-37.980;-63.602;2023-11-19T03:02:07;3.17;;;1.20;;
59960;SDS011;55902;-37.980;-63.602;2023-11-19T03:04:40;3.22;;;1.08;;
59960;SDS011;55902;-37.980;-63.602;2023-11-19T03:07:09;3.15;;;1.20;;
59960;SDS011;55902;-37.980;-63.602;2023-11-19T03:09:36;4.47;;;1.10;;
59960;SDS011;55902;-37.980;-63.602;2023-11-19T03:12:06;1.45;;;1.20;;
59960;SDS011;55902;-37.980;-63.602;2023-11-19T03:14:33;3.58;;;1.10;;
59960;SDS011;55902;-37.980;-63.602;2023-11-19T03:17:00;2.55;;;1.00;;
59960;SDS011;55902;-37.980;-63.602;2023-11-19T03:19:28;2.95;;;1.10;;
59960;SDS011;55902;-37.980;-63.602;2023-11-19T03:21:55;3.33;;;1.20;;
59960;SDS011;55902;-37.980;-63.602;2023-11-19T03:24:22;2.65;;;1.10;;
59960;SDS011;55902;-37.980;-63.602;2023-11-19T03:26:50;2.85;;;1.15;;
59960;SDS011;55902;-37.980;-63.602;2023-11-19T03:39:23;1.95;;;1.10;;
59960;SDS011;55902;-37.980;-63.602;2023-11-19T03:41:50;1.80;;;1.10;;
59960;SDS011;55902;-37.980;-63.602;2023-11-19T03:44:17;3.28;;;1.17;;
59960;SDS011;55902;-37.980;-63.602;2023-11-19T03:46:44;1.67;;;1.00;;
59960;SDS011;55902;-37.980;-63.602;2023-11-19T03:49:12;2.28;;;1.10;;
59960;SDS011;55902;-37.980;-63.602;2023-11-19T03:51:39;1.70;;;1.23;;
59960;SDS011;55902;-37.980;-63.602;2023-11-19T03:54:06;2.70;;;1.20;;
59960;SDS011;55902;-37.980;-63.602;2023-11-19T03:56:33;1.90;;;1.10;;
59960;SDS011;55902;-37.980;-63.602;2023-11-19T03:59:00;1.98;;;1.08;;
59960;SDS011;55902;-37.980;-63.602;2023-11-19T04:01:27;1.27;;;1.10;;
59960;SDS011;55902;-37.980;-63.602;2023-11-19T04:03:54;2.75;;;1.23;;
59960;SDS011;55902;-37.980;-63.602;2023-11-19T04:06:21;2.35;;;1.77;;
59960;SDS011;55902;-37.980;-63.602;2023-11-19T04:08:48;1.58;;;1.13;;
59960;SDS011;55902;-37.980;-63.602;2023-11-19T04:11:15;1.77;;;1.20;;
59960;SDS011;55902;-37.980;-63.602;2023-11-19T04:13:43;5.63;;;3.10;;
59960;SDS011;55902;-37.980;-63.602;2023-11-19T04:16:09;1.95;;;1.20;;
59960;SDS011;55902;-37.980;-63.602;2023-11-19T04:18:39;1.73;;;1.13;;
59960;SDS011;55902;-37.980;-63.602;2023-11-19T04:21:07;1.83;;;1.27;;
59960;SDS011;55902;-37.980;-63.602;2023-11-19T04:23:34;2.55;;;1.20;;
59960;SDS011;55902;-37.980;-63.602;2023-11-19T04:26:04;4.40;;;1.23;;
59960;SDS011;55902;-37.980;-63.602;2023-11-19T04:28:32;2.00;;;1.20;;
59960;SDS011;55902;-37.980;-63.602;2023-11-19T04:30:59;2.03;;;1.20;;
59960;SDS011;55902;-37.980;-63.602;2023-11-19T04:33:26;1.30;;;1.17;;
59960;SDS011;55902;-37.980;-63.602;2023-11-19T04:35:53;1.95;;;1.20;;
59960;SDS011;55902;-37.980;-63.602;2023-11-19T04:38:20;1.50;;;1.23;;
59960;SDS011;55902;-37.980;-63.602;2023-11-19T04:40:47;1.70;;;1.20;;
59960;SDS011;55902;-37.980;-63.602;2023-11-19T04:43:13;1.40;;;1.30;;
59960;SDS011;55902;-37.980;-63.602;2023-11-19T04:45:41;1.40;;;1.30;;
59960;SDS011;55902;-37.980;-63.602;2023-11-19T04:48:08;1.80;;;1.20;;
59960;SDS011;55902;-37.980;-63.602;2023-11-19T04:50:34;1.40;;;1.20;;
59960;SDS011;55902;-37.980;-63.602;2023-11-19T04:53:01;2.03;;;1.40;;
59960;SDS011;55902;-37.980;-63.602;2023-11-19T04:55:28;1.30;;;1.20;;
59960;SDS011;55902;-37.980;-63.602;2023-11-19T04:57:55;4.32;;;1.40;;
59960;SDS011;55902;-37.980;-63.602;2023-11-19T05:03:44;2.70;;;1.10;;
59960;SDS011;55902;-37.980;-63.602;2023-11-19T05:06:13;1.30;;;1.20;;
59960;SDS011;55902;-37.980;-63.602;2023-11-19T05:08:40;1.95;;;1.27;;
59960;SDS011;55902;-37.980;-63.602;2023-11-19T05:11:07;1.30;;;1.20;;
59960;SDS011;55902;-37.980;-63.602;2023-11-19T05:13:38;3.35;;;1.20;;
59960;SDS011;55902;-37.980;-63.602;2023-11-19T05:16:05;1.92;;;1.40;;
59960;SDS011;55902;-37.980;-63.602;2023-11-19T05:18:33;1.75;;;1.23;;
59960;SDS011;55902;-37.980;-63.602;2023-11-19T05:21:25;3.00;;;1.20;;
59960;SDS011;55902;-37.980;-63.602;2023-11-19T05:23:52;1.92;;;1.20;;
59960;SDS011;55902;-37.980;-63.602;2023-11-19T05:26:20;1.73;;;1.30;;
59960;SDS011;55902;-37.980;-63.602;2023-11-19T05:28:48;1.33;;;1.10;;
59960;SDS011;55902;-37.980;-63.602;2023-11-19T05:31:16;2.00;;;1.20;;
59960;SDS011;55902;-37.980;-63.602;2023-11-19T05:33:44;1.30;;;1.20;;
59960;SDS011;55902;-37.980;-63.602;2023-11-19T05:36:11;1.90;;;1.20;;
59960;SDS011;55902;-37.980;-63.602;2023-11-19T05:38:38;1.30;;;1.20;;
59960;SDS011;55902;-37.980;-63.602;2023-11-19T05:41:06;1.58;;;1.20;;
59960;SDS011;55902;-37.980;-63.602;2023-11-19T05:43:33;1.75;;;1.20;;
59960;SDS011;55902;-37.980;-63.602;2023-11-19T05:46:00;1.77;;;1.20;;
59960;SDS011;55902;-37.980;-63.602;2023-11-19T05:48:27;1.33;;;1.23;;
59960;SDS011;55902;-37.980;-63.602;2023-11-19T05:50:54;1.65;;;1.20;;
59960;SDS011;55902;-37.980;-63.602;2023-11-19T05:53:21;1.63;;;1.30;;
59960;SDS011;55902;-37.980;-63.602;2023-11-19T05:55:48;1.65;;;1.20;;
59960;SDS011;55902;-37.980;-63.602;2023-11-19T05:58:22;2.85;;;1.40;;
59960;SDS011;55902;-37.980;-63.602;2023-11-19T06:00:59;1.30;;;1.20;;
59960;SDS011;55902;-37.980;-63.602;2023-11-19T06:03:26;1.40;;;1.30;;
59960;SDS011;55902;-37.980;-63.602;2023-11-19T06:05:53;1.90;;;1.30;;
59960;SDS011;55902;-37.980;-63.602;2023-11-19T06:08:20;1.67;;;1.40;;
59960;SDS011;55902;-37.980;-63.602;2023-11-19T06:10:47;2.15;;;1.23;;
59960;SDS011;55902;-37.980;-63.602;2023-11-19T06:13:16;2.13;;;1.40;;
59960;SDS011;55902;-37.980;-63.602;2023-11-19T06:15:43;2.35;;;1.30;;
59960;SDS011;55902;-37.980;-63.602;2023-11-19T06:18:10;1.75;;;1.23;;
59960;SDS011;55902;-37.980;-63.602;2023-11-19T06:20:38;1.40;;;1.30;;
59960;SDS011;55902;-37.980;-63.602;2023-11-19T06:23:06;1.30;;;1.20;;
59960;SDS011;55902;-37.980;-63.602;2023-11-19T06:25:33;4.05;;;1.20;;
59960;SDS011;55902;-37.980;-63.602;2023-11-19T06:28:01;1.67;;;1.30;;
59960;SDS011;55902;-37.980;-63.602;2023-11-19T06:30:28;1.42;;;1.30;;
59960;SDS011;55902;-37.980;-63.602;2023-11-19T06:32:56;1.30;;;1.20;;
59960;SDS011;55902;-37.980;-63.602;2023-11-19T06:35:23;1.40;;;1.30;;
59960;SDS011;55902;-37.980;-63.602;2023-11-19T06:37:50;1.38;;;1.20;;
59960;SDS011;55902;-37.980;-63.602;2023-11-19T06:40:17;1.55;;;1.20;;
59960;SDS011;55902;-37.980;-63.602;2023-11-19T06:42:44;1.35;;;1.20;;
59960;SDS011;55902;-37.980;-63.602;2023-11-19T06:45:11;2.15;;;1.20;;
59960;SDS011;55902;-37.980;-63.602;2023-11-19T06:47:38;2.17;;;1.30;;
59960;SDS011;55902;-37.980;-63.602;2023-11-19T06:50:08;3.15;;;1.20;;
59960;SDS011;55902;-37.980;-63.602;2023-11-19T06:52:35;1.30;;;1.20;;
59960;SDS011;55902;-37.980;-63.602;2023-11-19T06:55:02;1.65;;;1.30;;
59960;SDS011;55902;-37.980;-63.602;2023-11-19T06:57:30;2.90;;;1.30;;
59960;SDS011;55902;-37.980;-63.602;2023-11-19T06:59:58;1.75;;;1.30;;
59960;SDS011;55902;-37.980;-63.602;2023-11-19T07:02:25;2.30;;;1.20;;
59960;SDS011;55902;-37.980;-63.602;2023-11-19T07:04:52;1.90;;;1.20;;
59960;SDS011;55902;-37.980;-63.602;2023-11-19T07:07:20;1.38;;;1.27;;
59960;SDS011;55902;-37.980;-63.602;2023-11-19T07:09:46;1.30;;;1.20;;
59960;SDS011;55902;-37.980;-63.602;2023-11-19T07:12:14;1.30;;;1.20;;
59960;SDS011;55902;-37.980;-63.602;2023-11-19T07:14:41;1.38;;;1.27;;
59960;SDS011;55902;-37.980;-63.602;2023-11-19T07:17:08;2.03;;;1.10;;
59960;SDS011;55902;-37.980;-63.602;2023-11-19T07:19:35;1.98;;;1.10;;
59960;SDS011;55902;-37.980;-63.602;2023-11-19T07:22:04;1.55;;;1.15;;
59960;SDS011;55902;-37.980;-63.602;2023-11-19T07:24:32;1.38;;;1.20;;
59960;SDS011;55902;-37.980;-63.602;2023-11-19T07:26:59;1.90;;;1.10;;
59960;SDS011;55902;-37.980;-63.602;2023-11-19T07:29:28;2.13;;;1.10;;
59960;SDS011;55902;-37.980;-63.602;2023-11-19T07:31:55;1.40;;;1.20;;
59960;SDS011;55902;-37.980;-63.602;2023-11-19T07:34:22;2.28;;;1.20;;
59960;SDS011;55902;-37.980;-63.602;2023-11-19T07:36:50;1.40;;;1.20;;
59960;SDS011;55902;-37.980;-63.602;2023-11-19T07:39:17;1.60;;;1.23;;
59960;SDS011;55902;-37.980;-63.602;2023-11-19T07:41:46;1.38;;;1.27;;
59960;SDS011;55902;-37.980;-63.602;2023-11-19T07:44:13;1.90;;;1.20;;
59960;SDS011;55902;-37.980;-63.602;2023-11-19T07:46:40;1.63;;;1.20;;
59960;SDS011;55902;-37.980;-63.602;2023-11-19T07:49:07;2.85;;;1.20;;
59960;SDS011;55902;-37.980;-63.602;2023-11-19T07:51:35;2.33;;;1.20;;
59960;SDS011;55902;-37.980;-63.602;2023-11-19T07:54:02;1.30;;;1.20;;
59960;SDS011;55902;-37.980;-63.602;2023-11-19T07:56:29;1.25;;;1.15;;
59960;SDS011;55902;-37.980;-63.602;2023-11-19T07:58:57;1.65;;;1.15;;
59960;SDS011;55902;-37.980;-63.602;2023-11-19T08:01:24;2.22;;;1.20;;
59960;SDS011;55902;-37.980;-63.602;2023-11-19T08:03:51;2.45;;;1.20;;
59960;SDS011;55902;-37.980;-63.602;2023-11-19T08:06:19;1.30;;;1.20;;
59960;SDS011;55902;-37.980;-63.602;2023-11-19T08:08:46;1.55;;;1.20;;
59960;SDS011;55902;-37.980;-63.602;2023-11-19T08:14:51;1.52;;;1.20;;
59960;SDS011;55902;-37.980;-63.602;2023-11-19T08:17:18;1.20;;;1.10;;
59960;SDS011;55902;-37.980;-63.602;2023-11-19T08:19:45;2.55;;;1.20;;
59960;SDS011;55902;-37.980;-63.602;2023-11-19T08:33:41;1.60;;;1.50;;
59960;SDS011;55902;-37.980;-63.602;2023-11-19T08:36:08;1.20;;;1.10;;
59960;SDS011;55902;-37.980;-63.602;2023-11-19T08:38:40;1.35;;;1.25;;
59960;SDS011;55902;-37.980;-63.602;2023-11-19T08:41:07;1.50;;;1.20;;
59960;SDS011;55902;-37.980;-63.602;2023-11-19T08:43:35;1.30;;;1.20;;
59960;SDS011;55902;-37.980;-63.602;2023-11-19T08:46:03;1.30;;;1.20;;
59960;SDS011;55902;-37.980;-63.602;2023-11-19T08:48:35;3.30;;;1.20;;
59960;SDS011;55902;-37.980;-63.602;2023-11-19T08:51:02;1.30;;;1.20;;
59960;SDS011;55902;-37.980;-63.602;2023-11-19T08:53:30;1.35;;;1.25;;
59960;SDS011;55902;-37.980;-63.602;2023-11-19T08:55:57;1.77;;;1.27;;
59960;SDS011;55902;-37.980;-63.602;2023-11-19T08:58:24;1.58;;;1.20;;
59960;SDS011;55902;-37.980;-63.602;2023-11-19T09:00:51;1.80;;;1.20;;
59960;SDS011;55902;-37.980;-63.602;2023-11-19T09:03:18;1.35;;;1.20;;
59960;SDS011;55902;-37.980;-63.602;2023-11-19T09:05:45;2.10;;;1.20;;
59960;SDS011;55902;-37.980;-63.602;2023-11-19T09:08:13;1.30;;;1.20;;
59960;SDS011;55902;-37.980;-63.602;2023-11-19T09:10:39;1.50;;;1.20;;
59960;SDS011;55902;-37.980;-63.602;2023-11-19T09:13:06;1.45;;;1.10;;
59960;SDS011;55902;-37.980;-63.602;2023-11-19T09:15:33;1.27;;;1.17;;
59960;SDS011;55902;-37.980;-63.602;2023-11-19T09:18:00;1.30;;;1.20;;
59960;SDS011;55902;-37.980;-63.602;2023-11-19T09:20:27;1.30;;;1.20;;
59960;SDS011;55902;-37.980;-63.602;2023-11-19T09:22:58;1.33;;;1.20;;
59960;SDS011;55902;-37.980;-63.602;2023-11-19T09:25:24;1.52;;;1.25;;
59960;SDS011;55902;-37.980;-63.602;2023-11-19T09:27:51;1.67;;;1.20;;
59960;SDS011;55902;-37.980;-63.602;2023-11-19T09:30:18;1.30;;;1.20;;
59960;SDS011;55902;-37.980;-63.602;2023-11-19T09:32:46;1.30;;;1.20;;
59960;SDS011;55902;-37.980;-63.602;2023-11-19T09:35:12;1.67;;;1.20;;
59960;SDS011;55902;-37.980;-63.602;2023-11-19T09:37:40;1.50;;;1.10;;
59960;SDS011;55902;-37.980;-63.602;2023-11-19T09:40:09;1.98;;;1.30;;
59960;SDS011;55902;-37.980;-63.602;2023-11-19T09:42:43;1.20;;;1.10;;
59960;SDS011;55902;-37.980;-63.602;2023-11-19T09:45:14;1.35;;;1.20;;
59960;SDS011;55902;-37.980;-63.602;2023-11-19T09:47:45;1.42;;;1.10;;
59960;SDS011;55902;-37.980;-63.602;2023-11-19T09:50:19;1.20;;;1.10;;
59960;SDS011;55902;-37.980;-63.602;2023-11-19T09:52:46;1.20;;;1.10;;
59960;SDS011;55902;-37.980;-63.602;2023-11-19T09:55:14;1.10;;;1.00;;
59960;SDS011;55902;-37.980;-63.602;2023-11-19T09:57:41;1.20;;;1.10;;
59960;SDS011;55902;-37.980;-63.602;2023-11-19T10:00:09;2.25;;;1.10;;
59960;SDS011;55902;-37.980;-63.602;2023-11-19T10:02:38;1.23;;;1.10;;
59960;SDS011;55902;-37.980;-63.602;2023-11-19T10:05:06;1.20;;;1.00;;
59960;SDS011;55902;-37.980;-63.602;2023-11-19T10:07:33;1.85;;;1.10;;
59960;SDS011;55902;-37.980;-63.602;2023-11-19T10:10:01;1.20;;;1.10;;
59960;SDS011;55902;-37.980;-63.602;2023-11-19T10:12:31;1.45;;;1.10;;
59960;SDS011;55902;-37.980;-63.602;2023-11-19T10:14:58;1.20;;;1.10;;
59960;SDS011;55902;-37.980;-63.602;2023-11-19T10:17:28;1.10;;;1.00;;
59960;SDS011;55902;-37.980;-63.602;2023-11-19T10:19:58;1.52;;;1.10;;
59960;SDS011;55902;-37.980;-63.602;2023-11-19T10:22:25;2.85;;;1.20;;
59960;SDS011;55902;-37.980;-63.602;2023-11-19T10:24:54;2.20;;;1.10;;
59960;SDS011;55902;-37.980;-63.602;2023-11-19T10:27:23;2.65;;;1.00;;
59960;SDS011;55902;-37.980;-63.602;2023-11-19T10:29:53;1.77;;;1.00;;
59960;SDS011;55902;-37.980;-63.602;2023-11-19T10:32:20;2.45;;;1.10;;
59960;SDS011;55902;-37.980;-63.602;2023-11-19T10:34:47;2.17;;;1.00;;
59960;SDS011;55902;-37.980;-63.602;2023-11-19T10:37:32;2.75;;;1.00;;
59960;SDS011;55902;-37.980;-63.602;2023-11-19T10:40:00;2.75;;;1.10;;
59960;SDS011;55902;-37.980;-63.602;2023-11-19T10:42:30;2.22;;;1.10;;
59960;SDS011;55902;-37.980;-63.602;2023-11-19T10:44:57;2.25;;;1.00;;
59960;SDS011;55902;-37.980;-63.602;2023-11-19T10:47:24;2.28;;;1.10;;
59960;SDS011;55902;-37.980;-63.602;2023-11-19T10:49:51;4.57;;;1.10;;
59960;SDS011;55902;-37.980;-63.602;2023-11-19T11:02:24;2.63;;;1.00;;
59960;SDS011;55902;-37.980;-63.602;2023-11-19T11:04:53;3.28;;;1.00;;
59960;SDS011;55902;-37.980;-63.602;2023-11-19T11:07:22;3.97;;;1.10;;
59960;SDS011;55902;-37.980;-63.602;2023-11-19T11:09:51;4.07;;;1.00;;
59960;SDS011;55902;-37.980;-63.602;2023-11-19T11:12:18;2.75;;;1.00;;
59960;SDS011;55902;-37.980;-63.602;2023-11-19T11:14:49;4.80;;;1.10;;
59960;SDS011;55902;-37.980;-63.602;2023-11-19T11:17:17;2.65;;;0.90;;
59960;SDS011;55902;-37.980;-63.602;2023-11-19T11:19:45;2.25;;;0.90;;
59960;SDS011;55902;-37.980;-63.602;2023-11-19T11:22:13;2.63;;;1.00;;
59960;SDS011;55902;-37.980;-63.602;2023-11-19T11:27:27;1.33;;;0.90;;
59960;SDS011;55902;-37.980;-63.602;2023-11-19T11:30:05;6.63;;;0.90;;
59960;SDS011;55902;-37.980;-63.602;2023-11-19T11:38:39;1.10;;;0.90;;
59960;SDS011;55902;-37.980;-63.602;2023-11-19T11:41:19;2.65;;;0.90;;
59960;SDS011;55902;-37.980;-63.602;2023-11-19T11:43:56;3.47;;;0.90;;
59960;SDS011;55902;-37.980;-63.602;2023-11-19T11:49:02;2.03;;;0.80;;
59960;SDS011;55902;-37.980;-63.602;2023-11-19T11:57:02;2.35;;;0.80;;
59960;SDS011;55902;-37.980;-63.602;2023-11-19T12:02:09;4.32;;;0.82;;
59960;SDS011;55902;-37.980;-63.602;2023-11-19T12:04:39;1.67;;;0.70;;
59960;SDS011;55902;-37.980;-63.602;2023-11-19T12:07:07;2.67;;;0.70;;
59960;SDS011;55902;-37.980;-63.602;2023-11-19T12:09:40;1.77;;;0.70;;
59960;SDS011;55902;-37.980;-63.602;2023-11-19T12:15:07;1.98;;;0.68;;
59960;SDS011;55902;-37.980;-63.602;2023-11-19T12:20:14;2.05;;;0.60;;
59960;SDS011;55902;-37.980;-63.602;2023-11-19T12:22:45;1.92;;;0.60;;
59960;SDS011;55902;-37.980;-63.602;2023-11-19T12:25:15;2.35;;;0.63;;
59960;SDS011;55902;-37.980;-63.602;2023-11-19T12:27:49;2.72;;;0.60;;
59960;SDS011;55902;-37.980;-63.602;2023-11-19T12:30:21;1.40;;;0.60;;
59960;SDS011;55902;-37.980;-63.602;2023-11-19T12:36:12;1.27;;;0.50;;
59960;SDS011;55902;-37.980;-63.602;2023-11-19T12:38:39;1.25;;;0.57;;
59960;SDS011;55902;-37.980;-63.602;2023-11-19T12:41:08;2.17;;;0.60;;
59960;SDS011;55902;-37.980;-63.602;2023-11-19T12:43:43;1.52;;;0.57;;
59960;SDS011;55902;-37.980;-63.602;2023-11-19T12:46:19;2.08;;;0.50;;
59960;SDS011;55902;-37.980;-63.602;2023-11-19T12:48:50;1.48;;;0.50;;
59960;SDS011;55902;-37.980;-63.602;2023-11-19T12:51:18;1.05;;;0.60;;
59960;SDS011;55902;-37.980;-63.602;2023-11-19T12:53:51;1.65;;;0.50;;
59960;SDS011;55902;-37.980;-63.602;2023-11-19T12:56:23;2.80;;;0.50;;
59960;SDS011;55902;-37.980;-63.602;2023-11-19T12:58:51;3.63;;;0.70;;
59960;SDS011;55902;-37.980;-63.602;2023-11-19T13:01:18;2.83;;;0.70;;
59960;SDS011;55902;-37.980;-63.602;2023-11-19T13:03:46;2.55;;;0.40;;
59960;SDS011;55902;-37.980;-63.602;2023-11-19T13:06:19;2.47;;;0.50;;
59960;SDS011;55902;-37.980;-63.602;2023-11-19T13:08:47;1.35;;;0.40;;
59960;SDS011;55902;-37.980;-63.602;2023-11-19T13:11:33;2.65;;;0.50;;
59960;SDS011;55902;-37.980;-63.602;2023-11-19T13:16:35;0.80;;;0.40;;
59960;SDS011;55902;-37.980;-63.602;2023-11-19T13:19:04;4.72;;;0.65;;
59960;SDS011;55902;-37.980;-63.602;2023-11-19T13:21:31;2.28;;;0.50;;
59960;SDS011;55902;-37.980;-63.602;2023-11-19T13:23:58;3.70;;;0.60;;
59960;SDS011;55902;-37.980;-63.602;2023-11-19T13:26:28;1.50;;;0.50;;
59960;SDS011;55902;-37.980;-63.602;2023-11-19T13:28:55;1.10;;;0.60;;
59960;SDS011;55902;-37.980;-63.602;2023-11-19T13:31:22;1.30;;;0.60;;
59960;SDS011;55902;-37.980;-63.602;2023-11-19T13:33:49;0.80;;;0.50;;
59960;SDS011;55902;-37.980;-63.602;2023-11-19T13:36:16;1.20;;;0.60;;
59960;SDS011;55902;-37.980;-63.602;2023-11-19T13:38:44;1.92;;;0.60;;
59960;SDS011;55902;-37.980;-63.602;2023-11-19T13:41:12;4.00;;;0.65;;
59960;SDS011;55902;-37.980;-63.602;2023-11-19T13:43:39;3.10;;;0.60;;
59960;SDS011;55902;-37.980;-63.602;2023-11-19T13:46:06;1.90;;;0.60;;
59960;SDS011;55902;-37.980;-63.602;2023-11-19T13:48:36;1.33;;;0.80;;
59960;SDS011;55902;-37.980;-63.602;2023-11-19T13:51:03;1.67;;;0.70;;
59960;SDS011;55902;-37.980;-63.602;2023-11-19T13:53:31;3.58;;;0.70;;
59960;SDS011;55902;-37.980;-63.602;2023-11-19T13:55:58;1.48;;;0.50;;
59960;SDS011;55902;-37.980;-63.602;2023-11-19T13:58:28;2.00;;;0.70;;
59960;SDS011;55902;-37.980;-63.602;2023-11-19T14:00:55;2.25;;;0.60;;
59960;SDS011;55902;-37.980;-63.602;2023-11-19T14:03:23;0.90;;;0.40;;
59960;SDS011;55902;-37.980;-63.602;2023-11-19T14:05:50;1.30;;;0.50;;
59960;SDS011;55902;-37.980;-63.602;2023-11-19T14:08:20;3.30;;;0.55;;
59960;SDS011;55902;-37.980;-63.602;2023-11-19T14:10:47;1.98;;;0.60;;
59960;SDS011;55902;-37.980;-63.602;2023-11-19T14:13:15;2.55;;;0.70;;
59960;SDS011;55902;-37.980;-63.602;2023-11-19T14:15:42;1.75;;;0.60;;
59960;SDS011;55902;-37.980;-63.602;2023-11-19T14:18:09;1.40;;;0.60;;
59960;SDS011;55902;-37.980;-63.602;2023-11-19T14:20:38;1.83;;;1.10;;
59960;SDS011;55902;-37.980;-63.602;2023-11-19T14:23:05;3.10;;;0.70;;
59960;SDS011;55902;-37.980;-63.602;2023-11-19T14:25:32;6.35;;;0.73;;
59960;SDS011;55902;-37.980;-63.602;2023-11-19T14:28:03;4.30;;;0.70;;
59960;SDS011;55902;-37.980;-63.602;2023-11-19T14:30:30;3.55;;;0.80;;
59960;SDS011;55902;-37.980;-63.602;2023-11-19T14:32:57;0.98;;;0.43;;
59960;SDS011;55902;-37.980;-63.602;2023-11-19T14:35:24;2.33;;;0.70;;
59960;SDS011;55902;-37.980;-63.602;2023-11-19T14:37:51;2.85;;;0.70;;
59960;SDS011;55902;-37.980;-63.602;2023-11-19T14:40:18;3.28;;;0.75;;
59960;SDS011;55902;-37.980;-63.602;2023-11-19T14:42:45;3.50;;;1.00;;
59960;SDS011;55902;-37.980;-63.602;2023-11-19T14:45:12;2.67;;;0.60;;
59960;SDS011;55902;-37.980;-63.602;2023-11-19T14:47:42;1.40;;;0.60;;
59960;SDS011;55902;-37.980;-63.602;2023-11-19T14:50:09;2.85;;;0.70;;
59960;SDS011;55902;-37.980;-63.602;2023-11-19T14:52:36;3.05;;;0.60;;
59960;SDS011;55902;-37.980;-63.602;2023-11-19T14:55:03;2.72;;;0.60;;
59960;SDS011;55902;-37.980;-63.602;2023-11-19T14:57:31;3.33;;;0.80;;
59960;SDS011;55902;-37.980;-63.602;2023-11-19T14:59:58;2.10;;;0.57;;
59960;SDS011;55902;-37.980;-63.602;2023-11-19T15:02:25;4.85;;;0.77;;
59960;SDS011;55902;-37.980;-63.602;2023-11-19T15:04:51;1.95;;;0.60;;
59960;SDS011;55902;-37.980;-63.602;2023-11-19T15:07:18;2.55;;;0.70;;
59960;SDS011;55902;-37.980;-63.602;2023-11-19T15:09:46;3.28;;;0.80;;
59960;SDS011;55902;-37.980;-63.602;2023-11-19T15:12:13;2.00;;;0.70;;
59960;SDS011;55902;-37.980;-63.602;2023-11-19T15:14:41;2.15;;;0.70;;
59960;SDS011;55902;-37.980;-63.602;2023-11-19T15:17:08;2.22;;;0.60;;
59960;SDS011;55902;-37.980;-63.602;2023-11-19T15:19:36;1.20;;;0.52;;
59960;SDS011;55902;-37.980;-63.602;2023-11-19T15:22:03;1.58;;;0.70;;
59960;SDS011;55902;-37.980;-63.602;2023-11-19T15:24:31;3.78;;;1.00;;
59960;SDS011;55902;-37.980;-63.602;2023-11-19T15:26:58;3.00;;;1.00;;
59960;SDS011;55902;-37.980;-63.602;2023-11-19T15:29:25;1.13;;;0.60;;
59960;SDS011;55902;-37.980;-63.602;2023-11-19T15:31:52;1.00;;;0.50;;
59960;SDS011;55902;-37.980;-63.602;2023-11-19T15:34:19;2.50;;;0.80;;
59960;SDS011;55902;-37.980;-63.602;2023-11-19T15:36:46;2.63;;;0.70;;
59960;SDS011;55902;-37.980;-63.602;2023-11-19T15:39:13;1.50;;;0.68;;
59960;SDS011;55902;-37.980;-63.602;2023-11-19T15:41:40;2.38;;;1.05;;
59960;SDS011;55902;-37.980;-63.602;2023-11-19T15:44:07;1.25;;;0.60;;
59960;SDS011;55902;-37.980;-63.602;2023-11-19T15:46:34;1.08;;;0.52;;
59960;SDS011;55902;-37.980;-63.602;2023-11-19T15:49:01;1.02;;;0.50;;